Terminal Aerodrome Forecast
Issued by NWS

Home | Current Version | Previous Version | Text Only | Print | Product List | Glossary On
Versions: 1 2 3 4 5 6 7 8 9 10 11 12
000
FTUS46 KLOX 301700 RRA
TAFVNY
TAF
KVNY 301743Z 3018/3118 00000KT P6SM BKN200
     FM302000 16008KT P6SM SCT150 BKN200
     FM310400 VRB03KT P6SM BKN150
     FM311100 VRB03KT P6SM BKN020
     FM311500 12005KT 4SM BR OVC010=

USA.gov is the U.S. government's official web portal to all federal, state and local government web resources and services.